createdAt,value
2023-05-24T00:03:12.911Z,75.70
2023-05-24T00:05:41.833Z,75.99
2023-05-24T00:08:23.556Z,76.34
2023-05-24T00:10:52.018Z,76.38
2023-05-24T00:13:20.216Z,76.58
2023-05-24T00:15:50.994Z,76.52
2023-05-24T00:18:22.401Z,76.17
2023-05-24T00:20:52.166Z,76.77
2023-05-24T00:23:20.900Z,77.25
2023-05-24T00:26:12.513Z,77.22
2023-05-24T00:28:52.461Z,77.11
2023-05-24T00:31:43.937Z,76.69
2023-05-24T00:34:23.404Z,77.43
2023-05-24T00:36:52.197Z,77.30
2023-05-24T00:39:23.767Z,77.17
2023-05-24T00:41:55.674Z,77.59
2023-05-24T00:44:24.137Z,77.41
2023-05-24T00:47:02.721Z,77.41
2023-05-24T00:49:46.933Z,77.74
2023-05-24T00:52:15.719Z,77.82
2023-05-24T00:54:44.490Z,77.51
2023-05-24T00:57:16.728Z,77.65
2023-05-24T00:59:49.052Z,77.51
2023-05-24T01:02:20.956Z,78.54
2023-05-24T01:04:49.899Z,78.29
2023-05-24T01:07:39.910Z,78.10
2023-05-24T01:10:46.882Z,77.84
2023-05-24T01:13:36.501Z,78.12
2023-05-24T01:16:32.156Z,77.99
2023-05-24T01:19:13.117Z,77.68
2023-05-24T01:22:12.128Z,77.33
2023-05-24T01:24:56.245Z,77.51
2023-05-24T01:27:28.354Z,77.49
2023-05-24T01:29:58.242Z,78.23
2023-05-24T01:32:29.192Z,78.48
2023-05-24T01:34:57.549Z,78.23
2023-05-24T01:37:28.214Z,80.28
2023-05-24T01:39:57.270Z,80.30
2023-05-24T01:42:41.782Z,79.61
2023-05-24T01:46:09.830Z,79.26
2023-05-24T01:48:57.335Z,78.85
2023-05-24T01:51:45.628Z,78.52
2023-05-24T01:54:28.476Z,78.52
2023-05-24T01:56:59.145Z,78.12
2023-05-24T01:59:30.471Z,77.70
2023-05-24T02:02:02.061Z,78.34
2023-05-24T02:04:31.250Z,79.37
2023-05-24T02:07:02.404Z,79.72
2023-05-24T02:09:30.906Z,79.67
2023-05-24T02:12:26.474Z,79.42
2023-05-24T02:15:24.985Z,78.56
2023-05-24T02:17:54.800Z,78.62
2023-05-24T02:20:37.839Z,78.46
2023-05-24T02:23:26.523Z,78.42
2023-05-24T02:25:57.470Z,78.30
2023-05-24T02:28:45.673Z,78.77
2023-05-24T02:31:17.387Z,78.66
2023-05-24T02:33:46.365Z,78.38
2023-05-24T02:36:17.132Z,78.04
2023-05-24T02:38:45.829Z,78.09
2023-05-24T02:41:18.120Z,78.09
2023-05-24T02:44:01.249Z,77.87
2023-05-24T02:46:41.551Z,77.98
2023-05-24T02:49:24.301Z,77.98
2023-05-24T02:52:18.498Z,77.93
2023-05-24T02:54:52.530Z,77.96
2023-05-24T02:57:26.813Z,77.99
2023-05-24T03:00:00.458Z,78.00
2023-05-24T03:02:41.626Z,78.61
2023-05-24T03:05:10.109Z,78.68
2023-05-24T03:07:38.878Z,78.38
2023-05-24T03:10:10.914Z,77.96
2023-05-24T03:12:41.713Z,78.16
2023-05-24T03:15:10.499Z,79.24
2023-05-24T03:17:38.630Z,81.48
2023-05-24T03:20:08.070Z,80.50
2023-05-24T03:22:36.494Z,79.51
2023-05-24T03:25:09.861Z,79.71
2023-05-24T03:27:38.163Z,79.35
2023-05-24T03:30:07.886Z,79.71
2023-05-24T03:32:41.169Z,80.57
2023-05-24T03:35:12.250Z,80.84
2023-05-24T03:37:41.024Z,81.45
2023-05-24T03:40:10.574Z,81.17
2023-05-24T03:42:59.995Z,81.39
2023-05-24T03:45:55.383Z,81.67
2023-05-24T03:48:23.892Z,81.75
2023-05-24T03:50:52.717Z,81.59
2023-05-24T03:53:23.087Z,81.55
2023-05-24T03:55:54.387Z,81.73
2023-05-24T03:58:23.490Z,81.88
2023-05-24T04:00:51.786Z,81.64
2023-05-24T04:03:20.225Z,81.18
2023-05-24T04:05:49.092Z,80.30
2023-05-24T04:08:17.937Z,79.32
2023-05-24T04:10:46.144Z,78.67
2023-05-24T04:13:16.978Z,78.39
2023-05-24T04:15:45.082Z,78.80
2023-05-24T04:18:13.513Z,78.67
2023-05-24T04:20:42.095Z,78.45
2023-05-24T04:23:31.084Z,77.59
2023-05-24T04:25:59.364Z,77.46
2023-05-24T04:28:27.690Z,76.35
2023-05-24T04:30:59.060Z,75.86
2023-05-24T04:33:28.179Z,74.19
2023-05-24T04:35:56.273Z,72.32
2023-05-24T04:38:25.149Z,72.44
2023-05-24T04:40:53.207Z,72.09
2023-05-24T04:43:21.485Z,71.82
2023-05-24T04:45:49.792Z,70.65
2023-05-24T04:48:18.605Z,69.98
2023-05-24T04:50:47.750Z,68.43
2023-05-24T04:53:15.847Z,64.88
2023-05-24T04:55:44.222Z,63.11
2023-05-24T04:58:12.491Z,57.07
2023-05-24T05:00:40.965Z,51.58
2023-05-24T05:03:10.614Z,47.26
2023-05-24T05:05:38.954Z,47.04
2023-05-24T05:08:07.166Z,50.76
2023-05-24T05:10:36.233Z,52.25
2023-05-24T05:13:04.768Z,52.58
2023-05-24T05:15:32.988Z,50.15
2023-05-24T05:18:01.216Z,49.14
2023-05-24T05:20:30.205Z,46.59
2023-05-24T05:22:58.441Z,48.00
2023-05-24T06:06:50.130Z,46.67
2023-05-24T06:09:18.127Z,46.69
2023-05-24T06:11:46.315Z,47.58
2023-05-24T06:14:20.008Z,46.94
2023-05-24T06:16:48.619Z,46.77
2023-05-24T06:19:17.031Z,47.00
2023-05-24T06:21:48.602Z,46.60
2023-05-24T06:24:21.454Z,46.43
2023-05-24T06:26:51.277Z,46.85
2023-05-24T06:29:22.836Z,46.23
2023-05-24T06:31:51.435Z,45.53
2023-05-24T06:34:21.700Z,44.78
2023-05-24T06:36:51.478Z,44.75
2023-05-24T06:39:19.989Z,44.24
2023-05-24T06:41:51.123Z,43.49
2023-05-24T06:44:25.325Z,43.12
2023-05-24T06:46:53.608Z,42.10
2023-05-24T06:49:22.549Z,43.09
2023-05-24T06:51:50.543Z,43.45
2023-05-24T06:54:18.753Z,41.70
2023-05-24T06:56:46.615Z,40.93
2023-05-24T06:59:14.707Z,42.32
2023-05-24T07:01:44.135Z,42.53
2023-05-24T07:04:12.325Z,41.03
2023-05-24T07:06:40.400Z,41.94
2023-05-24T07:09:10.606Z,41.72
2023-05-24T07:11:38.531Z,40.96
2023-05-24T07:14:06.700Z,40.62
2023-05-24T07:16:34.950Z,41.20
2023-05-24T07:19:04.843Z,40.87
2023-05-24T07:21:33.220Z,39.52
2023-05-24T07:24:03.994Z,40.32
2023-05-24T07:26:31.957Z,40.08
2023-05-24T07:28:59.923Z,38.92
2023-05-24T07:31:31.470Z,39.66
2023-05-24T07:33:59.461Z,39.93
2023-05-24T07:36:30.483Z,39.68
2023-05-24T07:39:04.664Z,38.90
2023-05-24T07:41:33.560Z,39.78
2023-05-24T07:44:01.938Z,40.26
2023-05-24T07:46:29.951Z,40.53
2023-05-24T07:48:58.499Z,40.72
2023-05-24T07:51:26.635Z,40.92
2023-05-24T07:53:54.907Z,40.90
2023-05-24T07:56:23.812Z,40.93
2023-05-24T07:58:52.040Z,40.91
2023-05-24T08:01:20.034Z,40.00
2023-05-24T08:03:48.663Z,40.39
2023-05-24T08:06:16.713Z,40.53
2023-05-24T08:08:45.962Z,40.69
2023-05-24T08:11:14.180Z,39.94
2023-05-24T08:13:42.260Z,40.07
2023-05-24T08:16:10.395Z,40.01
2023-05-24T08:18:38.544Z,39.65
2023-05-24T08:21:06.883Z,39.37
2023-05-24T08:23:35.182Z,38.40
2023-05-24T08:26:03.120Z,38.11
2023-05-24T08:28:31.172Z,38.01
2023-05-24T08:30:59.504Z,38.57
2023-05-24T08:33:29.133Z,38.97
2023-05-24T08:35:57.232Z,39.00
2023-05-24T08:38:25.359Z,38.56
2023-05-24T08:40:53.552Z,38.61
2023-05-24T08:43:22.945Z,37.92
2023-05-24T08:45:52.627Z,38.27
2023-05-24T08:48:21.158Z,38.77
2023-05-24T08:50:49.351Z,37.69
2023-05-24T08:53:19.147Z,37.72
2023-05-24T08:55:48.587Z,37.63
2023-05-24T08:58:17.002Z,37.68
2023-05-24T09:00:45.763Z,38.08
2023-05-24T09:03:14.317Z,38.05
2023-05-24T09:05:42.896Z,38.24
2023-05-24T09:08:13.493Z,37.75
2023-05-24T09:10:54.133Z,38.59
2023-05-24T09:13:25.299Z,39.51
2023-05-24T09:15:53.819Z,40.40
2023-05-24T09:18:22.394Z,41.00
2023-05-24T09:20:51.448Z,40.58
2023-05-24T09:23:19.732Z,40.92
2023-05-24T09:25:48.636Z,41.06
2023-05-24T09:28:18.463Z,41.26
2023-05-24T09:30:58.874Z,41.71
2023-05-24T09:33:34.924Z,42.89
2023-05-24T09:36:04.641Z,41.65
2023-05-24T09:38:33.352Z,41.79
2023-05-24T09:41:08.687Z,42.91
2023-05-24T09:43:49.755Z,44.27
2023-05-24T09:46:19.929Z,44.75
2023-05-24T09:48:58.403Z,43.89
2023-05-24T09:51:27.027Z,44.91
2023-05-24T09:54:02.144Z,45.47
2023-05-24T09:56:32.789Z,46.70
2023-05-24T09:59:07.288Z,48.15
2023-05-24T10:01:36.370Z,48.48
2023-05-24T10:04:09.424Z,48.19
2023-05-24T10:06:39.298Z,47.60
2023-05-24T10:09:09.791Z,48.80
2023-05-24T10:11:37.703Z,50.93
2023-05-24T10:14:07.612Z,50.82
2023-05-24T10:16:38.024Z,49.91
2023-05-24T10:19:07.278Z,48.93
2023-05-24T10:21:40.094Z,48.75
2023-05-24T10:24:11.298Z,48.38
2023-05-24T10:26:40.699Z,48.29
2023-05-24T10:29:16.949Z,48.93
2023-05-24T10:31:46.717Z,48.74
2023-05-24T10:34:15.601Z,48.91
2023-05-24T10:36:44.868Z,49.93
2023-05-24T10:39:13.015Z,50.18
2023-05-24T10:41:42.168Z,49.80
2023-05-24T10:44:12.351Z,49.80
2023-05-24T10:47:02.577Z,50.42
2023-05-24T10:49:31.385Z,50.26
2023-05-24T10:52:08.378Z,50.61
2023-05-24T10:54:39.768Z,50.30
2023-05-24T10:57:10.920Z,50.76
2023-05-24T10:59:39.743Z,50.13
2023-05-24T11:02:16.453Z,50.16
2023-05-24T11:04:49.260Z,51.07
2023-05-24T11:07:19.482Z,48.31
2023-05-24T11:09:53.173Z,47.41
2023-05-24T11:12:21.527Z,49.25
2023-05-24T11:14:51.520Z,51.50
2023-05-24T11:17:22.410Z,54.10
2023-05-24T11:19:53.322Z,56.43
2023-05-24T11:22:25.487Z,57.91
2023-05-24T11:24:53.774Z,58.81
2023-05-24T11:27:22.246Z,61.27
2023-05-24T11:29:50.424Z,64.96
2023-05-24T11:32:21.912Z,67.33
2023-05-24T11:34:51.126Z,69.73
2023-05-24T11:37:19.597Z,70.79
2023-05-24T11:39:54.544Z,71.37
2023-05-24T11:42:23.711Z,73.07
2023-05-24T11:44:51.678Z,74.30
2023-05-24T11:47:21.847Z,75.82
2023-05-24T11:49:51.458Z,76.99
2023-05-24T11:52:19.645Z,78.65
2023-05-24T11:54:48.544Z,79.69
2023-05-24T11:57:22.002Z,80.12
2023-05-24T11:59:50.430Z,79.62
2023-05-24T12:02:19.821Z,78.90
2023-05-24T12:04:47.950Z,79.40
2023-05-24T12:07:17.890Z,78.98
2023-05-24T12:09:46.821Z,79.81
2023-05-24T12:12:14.878Z,77.45
2023-05-24T12:14:42.788Z,76.30
2023-05-24T12:17:17.874Z,75.65
2023-05-24T12:19:50.317Z,75.39
2023-05-24T12:22:18.356Z,77.74
2023-05-24T12:24:50.708Z,77.54
2023-05-24T12:27:18.872Z,80.29
2023-05-24T12:29:48.992Z,80.20
2023-05-24T12:32:17.752Z,81.73
2023-05-24T12:34:46.050Z,82.83
2023-05-24T12:37:15.049Z,83.65
2023-05-24T12:39:44.280Z,84.09
2023-05-24T12:42:16.201Z,84.43
2023-05-24T12:44:45.253Z,84.74
2023-05-24T12:47:13.506Z,85.23
2023-05-24T12:49:41.470Z,83.83
2023-05-24T12:52:09.530Z,82.22
2023-05-24T12:54:37.566Z,83.78
2023-05-24T12:57:06.305Z,82.79
2023-05-24T12:59:35.086Z,81.30
2023-05-24T13:02:03.445Z,83.40
2023-05-24T13:04:33.823Z,83.30
2023-05-24T13:07:03.353Z,83.58
2023-05-24T13:09:31.580Z,82.52
2023-05-24T13:11:59.517Z,82.57
2023-05-24T13:14:27.872Z,83.12
2023-05-24T13:16:55.868Z,83.17
2023-05-24T13:19:24.038Z,83.64
2023-05-24T13:21:52.517Z,83.95
2023-05-24T13:24:20.957Z,83.69
2023-05-24T13:26:50.074Z,81.37
2023-05-24T13:29:34.260Z,79.56
2023-05-24T13:32:08.002Z,79.26
2023-05-24T13:34:37.053Z,80.00
2023-05-24T13:37:05.400Z,81.13
2023-05-24T13:39:35.340Z,80.72
2023-05-24T13:42:03.385Z,80.02
2023-05-24T13:44:32.555Z,78.76
2023-05-24T13:47:00.628Z,77.56
2023-05-24T13:49:29.115Z,78.67
2023-05-24T13:51:58.583Z,76.51
2023-05-24T13:54:27.772Z,74.54
2023-05-24T13:56:57.633Z,74.28
2023-05-24T13:59:27.164Z,73.70
2023-05-24T14:01:55.217Z,73.71
2023-05-24T14:04:23.457Z,73.91
2023-05-24T14:06:51.491Z,74.79
2023-05-24T14:09:21.478Z,74.24
2023-05-24T14:11:49.687Z,74.32
2023-05-24T14:16:51.734Z,76.97
2023-05-24T14:19:19.810Z,77.15
2023-05-24T14:21:47.829Z,76.61
2023-05-24T14:24:15.900Z,77.40
2023-05-24T14:26:43.886Z,77.58
2023-05-24T14:29:11.989Z,76.14
2023-05-24T14:31:42.852Z,75.22
2023-05-24T14:34:11.664Z,74.25
2023-05-24T14:36:41.610Z,74.03
2023-05-24T14:39:09.570Z,74.87
2023-05-24T14:41:37.766Z,74.89
2023-05-24T14:44:05.831Z,75.72
2023-05-24T14:46:33.880Z,74.40
2023-05-24T14:49:02.575Z,73.33
2023-05-24T14:51:30.606Z,72.75
2023-05-24T14:53:58.624Z,72.55
2023-05-24T14:56:27.619Z,74.79
2023-05-24T14:58:55.635Z,73.99
2023-05-24T15:01:23.804Z,74.45
2023-05-24T15:03:52.091Z,73.37
2023-05-24T15:06:20.052Z,73.54
2023-05-24T15:08:48.102Z,73.40
2023-05-24T15:11:17.657Z,73.01
2023-05-24T15:13:46.165Z,72.74
2023-05-24T15:16:14.183Z,72.65
2023-05-24T15:18:42.188Z,72.78
2023-05-24T15:21:10.492Z,72.35
2023-05-24T15:23:38.537Z,72.65
2023-05-24T15:26:06.595Z,71.80
2023-05-24T15:28:34.491Z,73.19
2023-05-24T15:31:03.768Z,73.51
2023-05-24T15:33:32.899Z,72.57
2023-05-24T15:36:00.926Z,72.08
2023-05-24T15:38:28.829Z,73.19
2023-05-24T15:40:56.693Z,73.16
2023-05-24T15:43:24.958Z,73.69
2023-05-24T15:45:53.666Z,72.90
2023-05-24T15:48:22.797Z,72.54
2023-05-24T15:53:22.880Z,73.12
2023-05-24T15:55:51.834Z,73.17
2023-05-24T15:58:20.080Z,73.48
2023-05-24T16:00:48.026Z,73.97
2023-05-24T16:03:16.257Z,74.90
2023-05-24T16:05:44.517Z,74.55
2023-05-24T16:08:13.305Z,75.80
2023-05-24T16:10:41.531Z,75.86
2023-05-24T16:13:10.578Z,75.67
2023-05-24T16:15:40.948Z,75.92
2023-05-24T16:18:09.009Z,75.91
2023-05-24T16:20:37.259Z,75.52
2023-05-24T16:23:05.471Z,74.55
2023-05-24T16:25:33.485Z,74.53
2023-05-24T16:28:01.483Z,74.84
2023-05-24T16:30:29.763Z,73.98
2023-05-24T16:32:57.771Z,73.62
2023-05-24T16:35:25.809Z,73.58
2023-05-24T16:37:55.927Z,73.87
2023-05-24T16:40:23.871Z,73.88
2023-05-24T16:42:53.744Z,75.22
2023-05-24T16:45:21.905Z,75.59
2023-05-24T16:47:50.099Z,76.03
2023-05-24T16:50:18.264Z,75.83
2023-05-24T16:52:46.195Z,74.75
2023-05-24T16:55:16.008Z,74.99
2023-05-24T16:57:44.106Z,75.64
2023-05-24T17:00:12.661Z,75.93
2023-05-24T17:02:40.853Z,76.59
2023-05-24T17:05:09.569Z,77.08
2023-05-24T17:07:37.948Z,77.35
2023-05-24T17:10:06.903Z,77.40
2023-05-24T17:12:35.621Z,77.25
2023-05-24T17:15:05.329Z,77.85
2023-05-24T17:17:33.310Z,78.00
2023-05-24T17:20:01.516Z,78.27
2023-05-24T17:22:29.934Z,78.45
2023-05-24T17:24:57.789Z,78.32
2023-05-24T17:27:25.860Z,78.36
2023-05-24T17:29:54.030Z,78.80
2023-05-24T17:32:22.223Z,79.04
2023-05-24T17:34:50.320Z,78.94
2023-05-24T17:37:18.535Z,79.23
2023-05-24T17:39:46.803Z,79.19
2023-05-24T17:42:14.911Z,79.35
2023-05-24T17:44:43.702Z,79.34
2023-05-24T17:47:11.907Z,79.05
2023-05-24T17:49:40.074Z,79.26
2023-05-24T17:52:08.057Z,79.60
2023-05-24T17:54:36.333Z,79.68
2023-05-24T17:57:04.771Z,79.82
2023-05-24T17:59:33.616Z,79.93
2023-05-24T18:02:01.525Z,80.16
2023-05-24T18:04:30.365Z,80.07
2023-05-24T18:06:58.486Z,80.26
2023-05-24T18:09:27.515Z,80.07
2023-05-24T18:11:55.351Z,80.02
2023-05-24T18:14:23.567Z,80.20
2023-05-24T18:16:51.690Z,80.72
2023-05-24T18:19:20.596Z,80.73
2023-05-24T18:21:49.217Z,80.47
2023-05-24T18:24:17.185Z,80.33
2023-05-24T18:26:47.286Z,80.49
2023-05-24T18:29:15.657Z,80.86
2023-05-24T18:31:44.056Z,80.90
2023-05-24T18:34:12.512Z,81.02
2023-05-24T18:36:40.431Z,81.13
2023-05-24T18:39:08.321Z,81.33
2023-05-24T18:41:36.275Z,81.14
2023-05-24T18:44:04.142Z,81.29
2023-05-24T18:46:33.281Z,81.46
2023-05-24T18:49:03.138Z,81.30
2023-05-24T18:51:31.227Z,81.16
2023-05-24T18:53:59.198Z,81.08
2023-05-24T18:56:28.235Z,81.67
2023-05-24T18:58:58.779Z,81.87
2023-05-24T19:01:28.285Z,82.27
2023-05-24T19:03:56.427Z,82.37
2023-05-24T19:06:24.376Z,82.49
2023-05-24T19:08:52.615Z,82.38
2023-05-24T19:11:21.250Z,82.15
2023-05-24T19:13:49.070Z,82.33
2023-05-24T19:16:18.347Z,82.45
2023-05-24T19:18:46.500Z,82.41
2023-05-24T19:21:15.018Z,82.16
2023-05-24T19:23:43.054Z,82.47
2023-05-24T19:26:11.300Z,82.84
2023-05-24T19:28:41.659Z,82.71
2023-05-24T19:31:09.999Z,82.65
2023-05-24T19:33:48.532Z,82.88
2023-05-24T19:36:25.906Z,82.81
2023-05-24T19:38:54.925Z,83.24
2023-05-24T19:41:22.995Z,83.18
2023-05-24T19:43:51.025Z,83.58
2023-05-24T19:46:19.108Z,85.74
2023-05-24T19:48:47.186Z,85.46
2023-05-24T19:51:15.794Z,84.69
2023-05-24T19:53:44.390Z,85.01
2023-05-24T19:56:12.357Z,84.50
2023-05-24T19:58:40.426Z,84.12
2023-05-24T20:01:08.599Z,83.86
2023-05-24T20:03:36.652Z,83.87
2023-05-24T20:06:04.723Z,83.70
2023-05-24T20:08:32.657Z,83.95
2023-05-24T20:11:00.616Z,84.00
2023-05-24T20:13:28.900Z,84.03
2023-05-24T20:15:57.190Z,84.14
2023-05-24T20:18:25.299Z,87.01
2023-05-24T20:20:55.227Z,87.72
2023-05-24T20:23:27.489Z,86.15
2023-05-24T20:25:58.279Z,85.28
2023-05-24T20:28:31.276Z,84.70
2023-05-24T20:30:59.953Z,84.86
2023-05-24T20:33:27.997Z,84.77
2023-05-24T20:35:56.241Z,84.78
2023-05-24T20:38:24.450Z,84.96
2023-05-24T20:40:52.386Z,84.82
2023-05-24T20:43:20.660Z,84.74
2023-05-24T20:45:48.642Z,85.17
2023-05-24T20:48:16.704Z,88.09
2023-05-24T20:50:44.706Z,87.40
2023-05-24T20:53:12.755Z,86.80
2023-05-24T20:55:40.852Z,86.36
2023-05-24T20:58:08.905Z,86.59
2023-05-24T21:00:39.510Z,86.47
2023-05-24T21:03:08.001Z,86.51
2023-05-24T21:05:38.102Z,86.11
2023-05-24T21:08:06.595Z,85.93
2023-05-24T21:10:35.584Z,86.10
2023-05-24T21:13:03.796Z,86.30
2023-05-24T21:15:31.906Z,85.94
2023-05-24T21:17:59.888Z,85.87
2023-05-24T21:20:28.188Z,86.02
2023-05-24T21:22:56.441Z,85.90
2023-05-24T21:25:24.602Z,84.85
2023-05-24T21:27:52.499Z,85.36
2023-05-24T21:30:20.388Z,86.00
2023-05-24T21:32:48.448Z,86.25
2023-05-24T21:35:16.716Z,86.38
2023-05-24T21:37:45.084Z,86.46
2023-05-24T21:40:13.170Z,86.60
2023-05-24T21:42:41.438Z,86.46
2023-05-24T21:45:09.784Z,86.46
2023-05-24T21:47:37.942Z,86.35
2023-05-24T21:50:06.563Z,86.45
2023-05-24T21:52:34.926Z,86.37
2023-05-24T21:55:02.902Z,86.55
2023-05-24T21:57:30.908Z,86.70
2023-05-24T21:59:59.033Z,86.73
2023-05-24T22:02:26.940Z,86.92
2023-05-24T22:04:55.203Z,87.09
2023-05-24T22:07:23.138Z,87.22
2023-05-24T22:09:51.422Z,87.06
2023-05-24T22:12:19.345Z,86.98
2023-05-24T22:14:47.334Z,87.07
2023-05-24T22:17:16.473Z,87.18
2023-05-24T22:19:44.439Z,87.17
2023-05-24T22:22:12.543Z,86.73
2023-05-24T22:24:40.889Z,86.95
2023-05-24T22:27:13.602Z,86.93
2023-05-24T22:29:41.765Z,87.09
2023-05-24T22:32:09.782Z,87.07
2023-05-24T22:34:37.838Z,87.22
2023-05-24T22:37:06.830Z,88.05
2023-05-24T22:39:34.893Z,88.74
2023-05-24T22:42:03.104Z,88.02
2023-05-24T22:44:31.113Z,87.70
2023-05-24T22:47:02.091Z,87.50
2023-05-24T22:49:34.114Z,87.41
2023-05-24T22:52:02.391Z,87.30
2023-05-24T22:54:30.254Z,87.33
2023-05-24T22:56:58.181Z,87.98
2023-05-24T22:59:26.232Z,87.77
2023-05-24T23:01:54.200Z,87.58
2023-05-24T23:04:22.356Z,87.32
2023-05-24T23:06:53.190Z,87.48
2023-05-24T23:09:29.471Z,87.42
2023-05-24T23:11:58.496Z,87.52
2023-05-24T23:14:30.358Z,87.62
2023-05-24T23:17:02.520Z,87.87
2023-05-24T23:19:31.418Z,88.92
2023-05-24T23:21:59.279Z,87.19
2023-05-24T23:24:27.183Z,86.68
2023-05-24T23:26:56.043Z,87.22
2023-05-24T23:29:24.082Z,87.52
2023-05-24T23:31:52.256Z,87.52
2023-05-24T23:34:20.237Z,87.75
2023-05-24T23:36:48.147Z,87.59
2023-05-24T23:39:16.384Z,87.39
2023-05-24T23:41:44.616Z,87.50
2023-05-24T23:44:12.480Z,87.61
2023-05-24T23:46:42.044Z,87.44
2023-05-24T23:49:09.953Z,88.50
2023-05-24T23:51:38.011Z,88.91
2023-05-24T23:54:06.092Z,88.24
2023-05-24T23:56:34.039Z,88.14
2023-05-24T23:59:02.682Z,88.10
